aviador You're here:

PFNO Decoded Metar

in
Report Time2018-02-25 14:56:00
UTC Time2018-02-25 15:12:26
Flight Rules mvfr MVFR
Wind280° at 17 kt
W.Decomp.*RWY 24: 13.0 kt HW 10.9 kt RCW
W.Rank280° ranks 6
Current wind is above 280° avg. (8.2)
Visibility9999 m
Phenomena:Light Snow
Clouds:Overcast 018 Hf
Expected CloudBase > 1,200 ft AGL from Temp-Dew spread
Ceiling1,800 ft
Temp-14°C
Dew Point-17°C (78% RH)
AAT-23.6°C
QNH1013 hPa
Raw Report
PFNO 251456Z AUTO 28017KT 7SM -SN OVC018 M14/M17 A2990 RMK AO2
SLP127 P0000 60000 T11441172 58004 FZRANO=

Extra information for PFNO:More info

Social comments